Time;durP1;ratioP1;P1;durP2;ratioP2;P2;SDS_P1;SDS_P2;PMS_P1;PMS_P2;Temp;Humidity;BMP_temperature;BMP_pressure;BME280_temperature;BME280_humidity;BME280_pressure;Samples;Min_cycle;Max_cycle;Signal;HPM_P1;HPM_P2
2022/06/13 00:01:01;;;;;;;1.30;1.20;;;26.10;62.40;;;;;;4975502;28;20450;-87
2022/06/13 00:03:30;;;;;;;1.20;1.00;;;26.10;62.50;;;;;;4975226;28;20500;-81
2022/06/13 00:05:57;;;;;;;1.20;1.10;;;26.10;62.50;;;;;;4975154;28;20520;-81
2022/06/13 00:08:23;;;;;;;1.20;1.10;;;26.10;62.50;;;;;;4975344;28;20831;-80
2022/06/13 00:10:50;;;;;;;1.77;1.60;;;26.10;62.50;;;;;;4974337;28;20492;-80
2022/06/13 00:13:17;;;;;;;1.10;1.00;;;26.10;62.60;;;;;;4975280;28;20588;-81
2022/06/13 00:15:44;;;;;;;2.23;1.17;;;26.10;62.60;;;;;;4974324;28;20445;-80
2022/06/13 00:18:11;;;;;;;1.63;1.37;;;26.10;62.50;;;;;;4973716;28;20533;-81
2022/06/13 00:20:39;;;;;;;1.30;1.17;;;26.10;62.60;;;;;;4974884;28;20513;-86
2022/06/13 00:23:06;;;;;;;1.20;1.10;;;26.10;62.50;;;;;;4975055;28;20517;-81
2022/06/13 00:25:33;;;;;;;1.60;1.20;;;26.10;62.60;;;;;;4975007;28;20863;-88
2022/06/13 00:28:00;;;;;;;1.10;1.00;;;26.10;62.70;;;;;;4974895;28;20986;-82
2022/06/13 00:30:27;;;;;;;1.30;1.20;;;26.10;62.70;;;;;;4974950;28;20521;-82
2022/06/13 00:32:54;;;;;;;1.40;1.30;;;26.10;62.70;;;;;;4974507;28;20464;-82
2022/06/13 00:35:21;;;;;;;1.33;1.23;;;26.10;62.70;;;;;;4974841;28;20543;-88
2022/06/13 00:37:49;;;;;;;4.20;1.00;;;26.10;62.80;;;;;;4974600;28;20453;-88
2022/06/13 00:40:16;;;;;;;1.10;1.00;;;26.10;62.80;;;;;;4974804;28;20527;-81
2022/06/13 00:42:44;;;;;;;1.20;1.10;;;26.10;62.80;;;;;;4974692;28;20535;-81
2022/06/13 00:45:21;;;;;;;1.37;1.27;;;26.10;62.80;;;;;;4974474;28;20536;-81
2022/06/13 00:47:51;;;;;;;1.40;1.30;;;26.10;62.80;;;;;;4974911;28;20918;-80
2022/06/13 00:50:22;;;;;;;1.57;1.47;;;26.10;62.90;;;;;;4974646;28;20564;-79
2022/06/13 00:52:54;;;;;;;1.50;1.30;;;26.10;62.80;;;;;;4974826;28;20452;-79
2022/06/13 00:55:28;;;;;;;1.30;1.20;;;26.10;62.90;;;;;;4974616;28;20468;-80
2022/06/13 00:57:56;;;;;;;1.00;0.90;;;26.10;63.00;;;;;;4974686;28;20909;-80
2022/06/13 01:00:23;;;;;;;2.07;1.30;;;26.00;62.90;;;;;;4974519;28;20540;-80
2022/06/13 01:02:51;;;;;;;1.43;1.33;;;26.10;63.10;;;;;;4974408;28;20548;-80
2022/06/13 01:05:23;;;;;;;1.47;1.00;;;26.10;63.00;;;;;;4974376;28;20449;-80
2022/06/13 01:07:54;;;;;;;1.40;1.03;;;26.10;63.10;;;;;;4974459;28;20488;-81
2022/06/13 01:13:09;;;;;;;1.60;1.40;;;26.00;63.00;;;;;;4974522;28;20429;-81
2022/06/13 01:15:59;;;;;;;1.30;1.20;;;26.10;63.10;;;;;;4974402;28;20445;-81
2022/06/13 01:19:06;;;;;;;1.53;1.30;;;26.10;63.10;;;;;;4974594;28;20524;-81
2022/06/13 01:21:42;;;;;;;1.40;1.00;;;26.10;63.10;;;;;;4974406;28;20524;-81
2022/06/13 01:24:50;;;;;;;1.77;1.20;;;26.10;63.20;;;;;;4978404;28;20544;-82
2022/06/13 01:27:41;;;;;;;1.50;1.40;;;26.00;62.90;;;;;;4978128;28;20544;-81
2022/06/13 01:30:41;;;;;;;1.77;1.37;;;26.10;63.30;;;;;;4978216;28;20469;-87
2022/06/13 01:33:20;;;;;;;1.30;1.20;;;26.10;63.10;;;;;;4977438;28;20931;-81
2022/06/13 01:36:01;;;;;;;1.40;1.00;;;26.00;63.20;;;;;;4978033;28;20445;-81
2022/06/13 01:38:42;;;;;;;1.10;1.00;;;26.00;63.30;;;;;;4977865;28;20868;-80
2022/06/13 01:41:16;;;;;;;1.33;1.23;;;26.00;63.30;;;;;;4978185;28;20477;-81
2022/06/13 01:43:51;;;;;;;1.57;1.23;;;26.00;63.30;;;;;;4978094;28;20452;-86
2022/06/13 01:46:28;;;;;;;1.40;1.00;;;26.00;63.30;;;;;;4978011;28;20443;-79
2022/06/13 01:49:06;;;;;;;1.33;1.23;;;26.00;63.30;;;;;;4977849;28;20536;-79
2022/06/13 01:51:41;;;;;;;1.37;1.27;;;26.00;64.10;;;;;;4977537;28;20480;-80
2022/06/13 01:54:20;;;;;;;1.20;1.10;;;26.00;63.30;;;;;;4977794;28;20436;-80
2022/06/13 01:56:56;;;;;;;1.10;1.00;;;26.00;63.30;;;;;;4977507;28;20441;-85
2022/06/13 01:59:33;;;;;;;1.87;1.43;;;26.00;63.30;;;;;;4977818;28;20539;-86
2022/06/13 02:02:07;;;;;;;1.73;1.40;;;26.00;64.30;;;;;;4977493;28;20533;-80
2022/06/13 02:04:40;;;;;;;1.37;1.27;;;26.00;63.40;;;;;;4977893;28;20544;-86
2022/06/13 02:07:11;;;;;;;1.40;1.30;;;26.00;63.30;;;;;;4977359;28;20450;-81
2022/06/13 02:09:41;;;;;;;1.50;1.23;;;26.00;63.30;;;;;;4977521;28;20535;-80
2022/06/13 02:12:08;;;;;;;1.30;1.20;;;26.00;63.30;;;;;;4976805;28;21011;-80
2022/06/13 02:14:38;;;;;;;1.30;1.00;;;26.00;63.30;;;;;;4977055;28;20465;-81
2022/06/13 02:17:11;;;;;;;1.57;1.47;;;26.00;63.40;;;;;;4977284;28;20567;-80
2022/06/13 02:19:45;;;;;;;1.30;1.20;;;26.00;63.30;;;;;;4977305;28;20465;-82
2022/06/13 02:22:19;;;;;;;1.20;1.10;;;26.00;63.40;;;;;;4977160;28;21027;-82
2022/06/13 02:24:50;;;;;;;1.30;1.00;;;26.00;63.40;;;;;;4977279;28;20489;-80
2022/06/13 02:27:19;;;;;;;2.13;1.17;;;26.00;63.40;;;;;;4977359;28;20480;-80
2022/06/13 02:29:51;;;;;;;1.17;1.07;;;26.00;63.40;;;;;;4977178;28;20529;-80
2022/06/13 02:32:21;;;;;;;1.17;1.07;;;26.00;63.40;;;;;;4976784;28;20489;-81
2022/06/13 02:34:53;;;;;;;2.47;1.63;;;26.00;63.40;;;;;;4976090;28;20445;-80
2022/06/13 02:37:25;;;;;;;1.17;1.07;;;26.00;64.20;;;;;;4977038;28;20444;-87
2022/06/13 02:39:58;;;;;;;1.50;1.30;;;26.00;63.40;;;;;;4976844;28;20528;-86
2022/06/13 02:42:29;;;;;;;1.67;1.57;;;26.00;63.40;;;;;;4977077;28;20485;-80
2022/06/13 02:45:02;;;;;;;1.53;1.30;;;26.00;63.50;;;;;;4976960;28;20532;-80
2022/06/13 02:47:34;;;;;;;1.40;1.30;;;26.00;63.50;;;;;;4957605;28;20549;-80
2022/06/13 02:50:09;;;;;;;2.23;1.30;;;26.00;63.50;;;;;;4957561;28;20448;-81
2022/06/13 02:52:41;;;;;;;1.30;1.20;;;26.00;63.40;;;;;;4957396;28;20517;-81
2022/06/13 02:55:11;;;;;;;1.53;1.43;;;26.00;63.50;;;;;;4975961;28;20544;-81
2022/06/13 02:57:57;;;;;;;1.47;1.20;;;26.00;63.50;;;;;;4976567;28;20452;-81
2022/06/13 03:00:33;;;;;;;1.13;1.03;;;26.00;63.50;;;;;;4976563;28;20441;-80
2022/06/13 03:03:14;;;;;;;1.20;1.10;;;26.00;63.50;;;;;;4976477;28;21022;-81
2022/06/13 03:05:54;;;;;;;1.50;1.20;;;26.00;63.50;;;;;;4976589;28;20445;-80
2022/06/13 03:08:43;;;;;;;1.67;1.30;;;26.00;63.40;;;;;;4976575;28;20484;-81
2022/06/13 03:11:23;;;;;;;1.50;1.40;;;26.00;63.50;;;;;;4976410;28;20779;-81
2022/06/13 03:14:02;;;;;;;1.23;1.13;;;26.00;63.60;;;;;;4976325;28;21019;-81
2022/06/13 03:16:34;;;;;;;1.57;1.30;;;26.00;63.50;;;;;;4976193;28;20947;-80
2022/06/13 03:19:07;;;;;;;1.43;1.33;;;25.90;63.50;;;;;;4976047;28;20532;-80
2022/06/13 03:21:40;;;;;;;1.60;1.47;;;26.00;63.60;;;;;;4975999;28;20481;-81
2022/06/13 03:24:14;;;;;;;1.30;1.20;;;26.00;63.50;;;;;;4976231;28;20473;-80
2022/06/13 03:26:44;;;;;;;1.77;1.67;;;26.00;63.60;;;;;;4976105;28;20995;-81
2022/06/13 03:29:17;;;;;;;1.53;1.43;;;26.00;63.50;;;;;;4975956;28;20541;-81
2022/06/13 03:31:49;;;;;;;1.10;0.90;;;26.00;63.50;;;;;;4975935;28;20529;-80
2022/06/13 03:34:23;;;;;;;1.43;1.33;;;26.00;63.50;;;;;;4975345;28;20630;-80
2022/06/13 03:36:57;;;;;;;1.30;1.17;;;26.00;63.60;;;;;;4975984;28;20448;-80
2022/06/13 03:39:28;;;;;;;1.20;1.10;;;26.00;63.60;;;;;;4975949;28;20442;-80
2022/06/13 03:41:58;;;;;;;1.30;1.20;;;26.00;63.60;;;;;;4975117;28;20540;-80
2022/06/13 03:44:29;;;;;;;1.30;1.20;;;26.00;63.70;;;;;;4975099;28;20480;-79
2022/06/13 03:47:09;;;;;;;1.60;1.50;;;26.00;63.70;;;;;;4975239;28;20822;-80
2022/06/13 03:49:39;;;;;;;1.27;1.10;;;26.00;63.70;;;;;;4975824;28;20492;-80
2022/06/13 03:52:12;;;;;;;1.60;1.50;;;26.00;63.70;;;;;;4975289;28;20516;-83
2022/06/13 03:54:42;;;;;;;1.20;1.10;;;26.00;63.60;;;;;;4975459;28;20480;-80
2022/06/13 03:57:15;;;;;;;1.27;1.17;;;26.00;63.60;;;;;;4975494;28;20465;-80
2022/06/13 03:59:47;;;;;;;1.53;1.37;;;26.00;63.70;;;;;;4975519;28;20441;-82
2022/06/13 04:02:16;;;;;;;1.20;1.10;;;26.00;63.60;;;;;;4975119;28;20484;-80
2022/06/13 04:04:47;;;;;;;1.20;1.10;;;26.00;63.60;;;;;;4975473;28;20548;-80
2022/06/13 04:07:16;;;;;;;1.30;1.20;;;26.00;63.70;;;;;;4975405;28;20469;-80
2022/06/13 04:09:48;;;;;;;1.30;1.20;;;25.90;63.60;;;;;;4975458;28;20534;-86
2022/06/13 04:12:55;;;;;;;1.33;1.20;;;26.00;63.80;;;;;;4975181;28;21084;-80
2022/06/13 04:15:54;;;;;;;1.50;1.40;;;26.00;63.60;;;;;;4974810;28;20523;-82
2022/06/13 04:18:37;;;;;;;2.17;1.60;;;26.00;63.70;;;;;;4971682;28;20532;-80
2022/06/13 04:21:16;;;;;;;1.47;1.13;;;25.90;63.70;;;;;;4974999;28;20580;-87
2022/06/13 04:23:51;;;;;;;1.10;1.00;;;25.90;63.70;;;;;;4975050;28;20531;-80
2022/06/13 04:26:23;;;;;;;1.40;1.30;;;25.90;63.80;;;;;;4975128;28;20447;-80
2022/06/13 04:28:56;;;;;;;1.40;1.20;;;25.90;63.80;;;;;;4974697;28;20525;-86
2022/06/13 04:31:26;;;;;;;1.20;1.10;;;25.90;63.80;;;;;;4974776;28;20480;-87
2022/06/13 04:33:59;;;;;;;1.20;1.00;;;25.90;63.70;;;;;;4974624;28;20469;-87
2022/06/13 04:36:27;;;;;;;1.40;1.30;;;25.90;63.80;;;;;;4974743;28;20476;-80
2022/06/13 04:38:59;;;;;;;1.10;1.00;;;25.90;63.80;;;;;;4974705;28;20528;-80
2022/06/13 04:41:32;;;;;;;1.80;1.20;;;25.90;63.80;;;;;;4974634;28;20464;-81
2022/06/13 04:44:01;;;;;;;1.23;1.13;;;26.00;63.80;;;;;;4974701;28;20566;-81
2022/06/13 04:46:30;;;;;;;1.30;1.13;;;26.00;63.80;;;;;;4974785;28;20493;-81
2022/06/13 04:49:04;;;;;;;2.03;1.30;;;25.90;63.80;;;;;;4974504;28;20532;-80
2022/06/13 04:51:37;;;;;;;1.47;1.37;;;25.90;63.70;;;;;;4974714;28;21039;-81
2022/06/13 04:54:07;;;;;;;1.60;1.30;;;25.90;63.80;;;;;;4974707;28;20533;-81
2022/06/13 04:56:35;;;;;;;2.00;1.20;;;25.90;63.80;;;;;;4973663;28;20960;-82
2022/06/13 04:59:03;;;;;;;2.90;1.40;;;25.90;63.80;;;;;;4974272;28;20957;-81
2022/06/13 05:01:33;;;;;;;1.30;1.20;;;25.90;63.80;;;;;;4974847;28;20528;-81
2022/06/13 05:04:03;;;;;;;1.50;1.40;;;25.90;63.90;;;;;;4974489;28;20471;-87
2022/06/13 05:06:33;;;;;;;1.53;1.43;;;25.90;63.90;;;;;;4975034;28;20536;-81
2022/06/13 05:09:03;;;;;;;1.73;1.47;;;25.90;63.90;;;;;;4974413;28;20481;-81
2022/06/13 05:11:36;;;;;;;1.20;1.10;;;25.90;63.90;;;;;;4974254;28;20587;-86
2022/06/13 05:14:08;;;;;;;1.57;1.47;;;25.90;64.00;;;;;;4972702;28;20449;-86
2022/06/13 05:16:47;;;;;;;1.10;1.00;;;25.90;63.90;;;;;;4974343;28;20532;-87
2022/06/13 05:19:40;;;;;;;1.57;1.40;;;25.90;64.00;;;;;;4973383;28;20853;-81
2022/06/13 05:22:20;;;;;;;1.90;1.20;;;25.90;63.90;;;;;;4973304;28;20544;-80
2022/06/13 05:25:08;;;;;;;1.63;1.33;;;25.90;64.10;;;;;;4967700;28;20452;-79
2022/06/13 05:27:36;;;;;;;1.27;1.17;;;25.90;64.10;;;;;;4962060;28;20446;-79
2022/06/13 05:30:03;;;;;;;1.33;1.20;;;25.90;64.20;;;;;;4966051;28;20458;-79
2022/06/13 05:32:30;;;;;;;1.43;1.33;;;25.90;64.20;;;;;;4965991;28;20489;-80
2022/06/13 05:35:03;;;;;;;1.30;1.20;;;25.90;64.20;;;;;;4964974;28;20477;-85
2022/06/13 05:37:30;;;;;;;1.50;1.23;;;25.90;64.20;;;;;;4963215;28;20446;-79
2022/06/13 05:39:57;;;;;;;1.50;1.40;;;25.90;64.10;;;;;;4961571;28;20489;-84
2022/06/13 05:42:24;;;;;;;1.20;1.10;;;25.90;64.20;;;;;;4962405;28;20446;-84
2022/06/13 05:44:52;;;;;;;1.40;1.30;;;25.90;64.20;;;;;;4955083;28;20537;-86
2022/06/13 05:47:21;;;;;;;1.10;1.00;;;25.90;64.20;;;;;;4954898;28;20541;-87
2022/06/13 05:49:48;;;;;;;1.20;1.10;;;25.90;64.30;;;;;;4955000;29;20857;-87
2022/06/13 05:52:15;;;;;;;1.00;0.90;;;25.90;64.30;;;;;;4954811;28;20925;-85
2022/06/13 05:54:42;;;;;;;1.20;1.07;;;25.90;64.30;;;;;;4960074;28;20536;-87
2022/06/13 05:57:11;;;;;;;1.50;1.40;;;25.90;64.40;;;;;;4969283;28;20552;-82
2022/06/13 05:59:38;;;;;;;1.30;1.20;;;25.90;64.40;;;;;;4973990;28;20477;-83
2022/06/13 06:02:09;;;;;;;1.40;1.30;;;25.90;64.40;;;;;;4973855;28;20449;-87
2022/06/13 06:31:46;;;;;;;6.53;2.30;;;25.80;66.70;;;;;;4977196;28;20453;-88
2022/06/13 06:34:13;;;;;;;2.40;2.20;;;25.80;67.40;;;;;;4977070;28;20555;-88
2022/06/13 06:36:40;;;;;;;2.57;2.13;;;25.80;67.10;;;;;;4976893;28;20445;-85
2022/06/13 06:39:07;;;;;;;10.30;2.50;;;25.80;67.90;;;;;;4977188;28;21033;-85
2022/06/13 06:41:33;;;;;;;3.50;2.10;;;25.80;66.80;;;;;;4977006;28;21118;-85
2022/06/13 06:44:00;;;;;;;2.20;2.00;;;25.80;66.60;;;;;;4976792;28;20532;-84
2022/06/13 06:46:27;;;;;;;4.00;2.33;;;25.80;66.50;;;;;;4976629;28;20552;-86
2022/06/13 06:48:55;;;;;;;3.63;2.00;;;25.90;66.50;;;;;;4976871;28;20437;-85
2022/06/13 06:51:22;;;;;;;3.33;2.20;;;25.90;66.50;;;;;;4977008;28;20528;-85
2022/06/13 07:02:04;;;;;;;7.50;2.80;;;25.90;66.80;;;;;;4962739;28;20469;-87
2022/06/13 07:04:33;;;;;;;3.73;2.37;;;25.90;66.50;;;;;;4975396;28;20481;-85
2022/06/13 07:06:59;;;;;;;8.00;2.53;;;26.00;66.30;;;;;;4975240;28;21015;-82
2022/06/13 07:09:26;;;;;;;4.80;2.70;;;26.00;66.10;;;;;;4976398;28;20445;-86
2022/06/13 07:11:56;;;;;;;1.90;1.70;;;26.00;66.00;;;;;;4975531;28;20476;-82
2022/06/13 07:14:25;;;;;;;5.90;2.30;;;26.00;66.00;;;;;;4976402;28;20500;-82
2022/06/13 07:16:53;;;;;;;2.63;2.13;;;26.00;66.00;;;;;;4973300;28;20453;-86
2022/06/13 07:19:20;;;;;;;1.87;1.63;;;26.10;66.10;;;;;;4969411;28;20453;-87
2022/06/13 07:21:48;;;;;;;2.90;1.87;;;26.10;66.90;;;;;;4970184;28;20439;-88
2022/06/13 07:24:18;;;;;;;2.63;2.00;;;26.10;66.00;;;;;;4962882;28;20521;-85
2022/06/13 07:26:45;;;;;;;2.10;1.53;;;26.10;66.00;;;;;;4959093;28;20474;-82
2022/06/13 07:29:12;;;;;;;2.10;1.90;;;26.10;66.00;;;;;;4975181;28;20544;-86
2022/06/13 07:31:42;;;;;;;3.30;2.20;;;26.10;66.10;;;;;;4961404;28;20469;-88
2022/06/13 07:34:14;;;;;;;2.83;2.40;;;26.00;66.40;;;;;;4968247;28;20945;-85
2022/06/13 07:36:41;;;;;;;2.30;1.70;;;26.00;66.50;;;;;;4957247;28;20538;-87
2022/06/13 07:39:09;;;;;;;3.33;2.90;;;26.00;66.50;;;;;;4965530;28;20536;-87
2022/06/13 07:41:39;;;;;;;8.20;3.13;;;26.00;66.60;;;;;;4976057;28;20445;-88
2022/06/13 07:44:06;;;;;;;3.43;2.90;;;26.00;66.70;;;;;;4976036;28;20449;-86
2022/06/13 07:46:34;;;;;;;3.03;2.67;;;26.00;66.70;;;;;;4976275;28;20548;-88
2022/06/13 07:49:01;;;;;;;2.57;2.30;;;26.00;66.70;;;;;;4976353;28;20975;-86
2022/06/13 07:51:29;;;;;;;3.13;2.90;;;25.90;66.60;;;;;;4976797;28;20474;-87
2022/06/13 07:53:55;;;;;;;3.07;2.87;;;26.00;66.70;;;;;;4978186;28;20920;-87
2022/06/13 07:56:26;;;;;;;3.03;2.47;;;26.00;66.80;;;;;;4977489;28;20791;-87
2022/06/13 07:58:54;;;;;;;4.23;2.47;;;26.00;66.80;;;;;;4975900;28;20442;-87
2022/06/13 08:01:22;;;;;;;5.00;2.70;;;26.00;66.90;;;;;;4976380;28;20496;-88
2022/06/13 08:03:50;;;;;;;3.50;2.60;;;26.00;66.90;;;;;;4975969;28;20461;-87
2022/06/13 08:06:17;;;;;;;4.27;3.00;;;26.00;66.90;;;;;;4976368;28;20469;-88
2022/06/13 08:08:46;;;;;;;4.67;2.40;;;26.00;66.90;;;;;;4976096;28;20445;-87
2022/06/13 08:11:15;;;;;;;18.23;4.90;;;26.00;66.90;;;;;;4976036;28;20445;-87
2022/06/13 08:13:44;;;;;;;33.90;6.30;;;26.00;66.80;;;;;;4976152;28;20488;-87
2022/06/13 08:16:11;;;;;;;28.87;5.33;;;26.00;66.90;;;;;;4976577;28;20437;-86
2022/06/13 08:18:40;;;;;;;27.57;6.47;;;26.00;66.80;;;;;;4975762;28;20449;-87
2022/06/13 08:21:07;;;;;;;27.30;8.20;;;26.00;66.80;;;;;;4975716;28;20450;-86
2022/06/13 08:23:34;;;;;;;39.03;7.10;;;26.00;66.80;;;;;;4975616;28;20488;-85
2022/06/13 08:26:01;;;;;;;41.60;9.47;;;26.00;66.70;;;;;;4976094;28;20501;-87
2022/06/13 08:28:28;;;;;;;37.47;10.07;;;26.00;66.70;;;;;;4975916;28;20512;-87
2022/06/13 08:31:01;;;;;;;46.87;8.83;;;26.00;66.60;;;;;;4975383;28;20472;-86
2022/06/13 08:33:28;;;;;;;50.97;10.53;;;26.00;66.60;;;;;;4975072;28;20501;-87
2022/06/13 08:35:55;;;;;;;68.27;10.20;;;26.00;66.60;;;;;;4975461;28;20488;-85
2022/06/13 08:38:24;;;;;;;62.30;8.03;;;26.00;66.60;;;;;;4975333;28;20533;-86
2022/06/13 08:41:00;;;;;;;34.43;7.03;;;26.00;66.70;;;;;;4975205;28;20469;-87
2022/06/13 08:43:50;;;;;;;22.20;6.13;;;26.10;66.80;;;;;;4975573;28;20433;-85
2022/06/13 08:46:26;;;;;;;18.83;5.77;;;26.10;66.90;;;;;;4975099;28;20521;-86
2022/06/13 08:49:02;;;;;;;16.23;4.60;;;26.10;66.60;;;;;;4975397;28;20476;-86
2022/06/13 08:51:39;;;;;;;16.47;5.40;;;26.10;66.40;;;;;;4975198;28;20516;-86
2022/06/13 08:54:10;;;;;;;19.53;5.37;;;26.10;66.30;;;;;;4974725;28;20488;-88
2022/06/13 08:56:38;;;;;;;18.83;5.57;;;26.10;66.30;;;;;;4975005;28;20465;-87
2022/06/13 08:59:23;;;;;;;13.17;6.00;;;26.10;66.20;;;;;;4974572;28;20513;-86
2022/06/13 09:01:56;;;;;;;24.77;5.63;;;26.10;66.20;;;;;;4974970;28;20492;-87
2022/06/13 09:04:28;;;;;;;27.60;5.40;;;26.20;66.30;;;;;;4974891;28;20793;-87
2022/06/13 09:07:01;;;;;;;26.63;4.83;;;26.20;66.30;;;;;;4974822;28;20591;-86
2022/06/13 09:09:32;;;;;;;33.60;5.70;;;26.20;66.30;;;;;;4974908;28;20864;-87
2022/06/13 09:12:03;;;;;;;16.80;5.27;;;26.20;66.20;;;;;;4974640;28;20477;-86
2022/06/13 09:14:34;;;;;;;15.23;5.00;;;26.20;66.20;;;;;;4975073;28;20528;-87
2022/06/13 09:17:09;;;;;;;21.80;4.63;;;26.20;66.10;;;;;;4974740;28;20476;-87
2022/06/13 09:19:43;;;;;;;22.13;5.00;;;26.20;66.10;;;;;;4974800;28;20438;-87
2022/06/13 09:22:14;;;;;;;23.77;5.20;;;26.30;66.10;;;;;;4974477;28;20479;-84
2022/06/13 09:24:47;;;;;;;14.30;4.97;;;26.30;66.10;;;;;;4976412;28;20451;-84
2022/06/13 09:27:19;;;;;;;31.60;6.13;;;26.20;66.10;;;;;;4974335;28;20484;-84
2022/06/13 09:29:53;;;;;;;24.10;5.07;;;26.20;66.10;;;;;;4973964;28;20972;-84
2022/06/13 09:32:25;;;;;;;24.27;4.93;;;26.20;65.90;;;;;;4974245;28;20492;-85
2022/06/13 09:34:56;;;;;;;27.47;4.83;;;26.20;65.70;;;;;;4974241;28;20445;-86
2022/06/13 09:37:32;;;;;;;17.83;5.17;;;26.20;65.50;;;;;;4962009;28;20458;-85
2022/06/13 09:40:00;;;;;;;21.43;5.87;;;26.20;65.20;;;;;;4955163;28;20473;-84
2022/06/13 09:42:39;;;;;;;15.23;4.10;;;26.20;65.30;;;;;;4968499;28;20484;-85
2022/06/13 09:45:26;;;;;;;30.07;5.53;;;26.20;65.40;;;;;;4978572;28;20440;-86
2022/06/13 09:48:00;;;;;;;22.47;4.47;;;26.20;65.90;;;;;;4982077;28;20472;-86
2022/06/13 09:50:36;;;;;;;16.93;4.30;;;26.20;66.20;;;;;;4983066;28;20457;-85
2022/06/13 09:53:10;;;;;;;16.10;5.00;;;26.30;66.30;;;;;;4978557;28;20516;-84
2022/06/13 09:55:45;;;;;;;8.33;4.23;;;26.30;66.40;;;;;;4978187;28;20463;-91
2022/06/13 09:58:22;;;;;;;13.07;4.13;;;26.30;66.40;;;;;;4978019;28;20908;-88
2022/06/13 10:00:57;;;;;;;19.30;5.00;;;26.30;66.40;;;;;;4977486;28;20846;-84
2022/06/13 10:03:36;;;;;;;14.13;4.43;;;26.30;66.40;;;;;;4977853;28;20469;-90
2022/06/13 10:06:11;;;;;;;18.43;4.63;;;26.30;66.40;;;;;;4977698;28;20437;-90
2022/06/13 10:08:49;;;;;;;17.30;4.30;;;26.40;66.50;;;;;;4978041;28;20901;-84
2022/06/13 10:11:25;;;;;;;11.83;4.37;;;26.40;66.30;;;;;;4977896;28;20536;-91
2022/06/13 10:14:19;;;;;;;19.43;4.70;;;26.30;66.20;;;;;;4977641;28;20488;-84
2022/06/13 10:16:55;;;;;;;18.33;4.40;;;26.40;66.30;;;;;;4977974;28;20810;-89
2022/06/13 10:19:33;;;;;;;19.87;3.80;;;26.40;66.20;;;;;;4977414;28;20469;-81
2022/06/13 10:22:10;;;;;;;13.30;4.10;;;26.40;66.20;;;;;;4977299;28;20485;-83
2022/06/13 10:24:46;;;;;;;14.33;4.07;;;26.40;66.20;;;;;;4976431;28;21023;-83
2022/06/13 10:27:21;;;;;;;7.07;3.40;;;26.40;66.10;;;;;;4977261;28;20440;-86
2022/06/13 10:30:23;;;;;;;14.23;4.03;;;26.40;66.20;;;;;;4976960;28;20481;-83
2022/06/13 10:33:05;;;;;;;16.30;4.13;;;26.50;66.20;;;;;;4973283;28;20545;-82
2022/06/13 10:35:48;;;;;;;14.50;3.20;;;26.40;66.10;;;;;;4976622;28;20473;-82
2022/06/13 10:38:36;;;;;;;18.50;5.00;;;26.50;66.20;;;;;;4976187;28;20457;-82
2022/06/13 10:41:03;;;;;;;10.90;4.10;;;26.50;66.10;;;;;;4976532;28;20468;-87
2022/06/13 10:43:32;;;;;;;15.83;3.90;;;26.50;66.10;;;;;;4976266;28;20520;-83
2022/06/13 10:45:59;;;;;;;12.53;3.77;;;26.50;66.10;;;;;;4976618;28;20835;-82
2022/06/13 10:48:30;;;;;;;11.60;3.60;;;26.50;66.00;;;;;;4976443;28;20469;-82
2022/06/13 10:51:00;;;;;;;12.50;4.33;;;26.50;66.00;;;;;;4976706;28;20453;-86
2022/06/13 10:53:31;;;;;;;11.30;3.57;;;26.50;65.90;;;;;;4976430;28;20520;-87
2022/06/13 10:56:00;;;;;;;8.77;3.40;;;26.60;65.90;;;;;;4976228;28;20520;-86
2022/06/13 10:58:34;;;;;;;7.20;3.03;;;26.60;65.90;;;;;;4977078;28;20441;-86
2022/06/13 11:01:10;;;;;;;6.67;3.63;;;26.60;65.80;;;;;;4976728;28;20544;-83
2022/06/13 11:03:44;;;;;;;8.63;3.23;;;26.70;65.80;;;;;;4976938;28;20803;-82
2022/06/13 11:06:33;;;;;;;6.80;2.60;;;26.60;65.80;;;;;;4976963;28;20875;-86
2022/06/13 11:09:01;;;;;;;4.73;1.93;;;26.60;65.10;;;;;;4976932;28;20451;-85
2022/06/13 11:11:35;;;;;;;6.10;2.70;;;26.50;64.60;;;;;;4976912;28;20449;-85
2022/06/13 11:14:02;;;;;;;7.57;2.60;;;26.50;64.30;;;;;;4976548;28;20525;-85
2022/06/13 11:25:16;;;;;;;3.73;1.67;;;26.50;63.90;;;;;;4974573;28;20432;-86
2022/06/13 11:27:43;;;;;;;4.40;2.13;;;26.50;64.90;;;;;;4976628;28;20480;-86
2022/06/13 11:30:36;;;;;;;2.93;2.40;;;26.50;64.20;;;;;;4976456;28;20556;-86
2022/06/13 11:33:06;;;;;;;4.00;2.03;;;26.50;64.30;;;;;;4976031;28;20456;-86
2022/06/13 11:35:38;;;;;;;7.40;2.40;;;26.50;64.30;;;;;;4975911;28;20448;-86
2022/06/13 11:38:19;;;;;;;7.20;2.50;;;26.50;64.50;;;;;;4975780;28;20461;-86
2022/06/13 11:40:48;;;;;;;12.27;2.70;;;26.60;64.50;;;;;;4976083;28;20445;-86
2022/06/13 11:43:20;;;;;;;5.57;2.27;;;26.50;65.10;;;;;;4976236;28;20805;-86
2022/06/13 11:45:56;;;;;;;6.50;2.67;;;26.50;65.40;;;;;;4976091;28;20464;-84
2022/06/13 11:48:23;;;;;;;4.80;2.60;;;26.50;65.00;;;;;;4976252;28;20931;-86
2022/06/13 11:50:55;;;;;;;9.00;3.17;;;26.60;65.60;;;;;;4975952;28;20477;-86
2022/06/13 11:53:39;;;;;;;5.87;3.33;;;26.50;65.40;;;;;;4975750;28;20505;-85
2022/06/13 11:56:11;;;;;;;12.50;6.10;;;26.50;64.60;;;;;;4975839;28;20445;-84
2022/06/13 11:58:42;;;;;;;23.00;8.87;;;26.50;63.80;;;;;;4975804;28;20943;-85
2022/06/13 12:01:19;;;;;;;25.73;9.53;;;26.60;63.40;;;;;;4975588;28;20481;-85
2022/06/13 12:03:57;;;;;;;27.93;9.57;;;26.50;62.80;;;;;;4975765;28;20496;-84
2022/06/13 12:06:24;;;;;;;18.40;8.20;;;26.60;63.20;;;;;;4971813;28;20582;-84
2022/06/13 12:09:03;;;;;;;16.03;6.87;;;26.50;63.50;;;;;;4974823;28;20891;-84
2022/06/13 12:11:30;;;;;;;21.00;9.20;;;26.60;62.90;;;;;;4975860;28;20470;-84
2022/06/13 12:13:59;;;;;;;26.40;8.33;;;26.50;63.30;;;;;;4975086;28;21283;-84
2022/06/13 12:16:35;;;;;;;13.33;8.53;;;26.50;63.20;;;;;;4974436;28;20454;-85
2022/06/13 12:19:32;;;;;;;19.03;8.30;;;26.50;63.20;;;;;;4970842;28;20477;-84
2022/06/13 12:22:04;;;;;;;16.80;7.80;;;26.50;63.30;;;;;;4958578;28;20746;-84
2022/06/13 12:24:42;;;;;;;13.50;7.30;;;26.50;63.70;;;;;;4971378;28;20459;-84
2022/06/13 12:27:32;;;;;;;16.40;7.67;;;26.50;63.50;;;;;;4954886;28;20473;-84
2022/06/13 12:30:17;;;;;;;18.20;8.50;;;26.50;63.70;;;;;;4966808;28;20512;-83
2022/06/13 12:32:52;;;;;;;18.17;9.27;;;26.50;63.90;;;;;;4976775;28;20461;-82
2022/06/13 12:35:45;;;;;;;15.20;8.00;;;26.40;64.00;;;;;;4976525;28;20552;-96
2022/06/13 12:38:26;;;;;;;17.03;8.13;;;26.50;64.40;;;;;;4962791;28;20477;-96
2022/06/13 12:41:05;;;;;;;14.07;8.37;;;26.60;64.80;;;;;;4965319;28;20857;-83
2022/06/13 12:44:15;;;;;;;15.10;8.77;;;26.60;64.00;;;;;;4974312;28;20468;-84
2022/06/13 12:46:56;;;;;;;15.90;8.87;;;26.60;63.70;;;;;;4966971;28;20544;-84
2022/06/13 12:49:53;;;;;;;14.70;10.27;;;26.60;63.80;;;;;;4974144;28;20814;-83
2022/06/13 12:52:43;;;;;;;13.80;11.83;;;26.60;64.10;;;;;;4974722;28;20441;-84
2022/06/13 12:55:26;;;;;;;17.17;15.37;;;26.60;64.00;;;;;;4955135;28;20577;-85
2022/06/13 12:58:13;;;;;;;19.87;16.53;;;26.60;63.90;;;;;;4961403;28;20471;-84
2022/06/13 13:00:46;;;;;;;18.93;17.07;;;26.50;63.70;;;;;;4974561;28;20445;-84
2022/06/13 13:03:27;;;;;;;18.60;16.67;;;26.60;65.10;;;;;;4974783;28;20445;-83
2022/06/13 13:06:05;;;;;;;22.67;19.20;;;26.60;64.40;;;;;;4972751;28;20441;-83
2022/06/13 13:08:43;;;;;;;28.20;25.60;;;26.60;64.20;;;;;;4974227;28;20455;-83
2022/06/13 13:11:24;;;;;;;27.77;24.80;;;26.60;65.30;;;;;;4974314;28;20442;-82
2022/06/13 13:14:00;;;;;;;26.97;24.37;;;26.60;66.10;;;;;;4973552;28;20477;-82
2022/06/13 13:16:36;;;;;;;32.33;26.23;;;26.60;66.20;;;;;;4974544;28;20542;-82
2022/06/13 13:19:31;;;;;;;27.80;24.97;;;26.70;66.40;;;;;;4977005;28;20495;-82
2022/06/13 13:22:05;;;;;;;41.67;27.70;;;26.70;66.50;;;;;;4978152;28;20450;-90
2022/06/13 13:24:53;;;;;;;30.37;25.40;;;26.70;66.80;;;;;;4959698;28;20456;-85
2022/06/13 13:27:24;;;;;;;34.37;27.57;;;26.70;66.60;;;;;;4959274;29;20465;-85
2022/06/13 13:30:05;;;;;;;33.53;28.83;;;26.70;66.60;;;;;;4966411;28;20487;-83
2022/06/13 13:32:41;;;;;;;35.53;31.03;;;26.80;66.60;;;;;;4965962;28;20446;-82
2022/06/13 13:35:19;;;;;;;34.10;30.40;;;26.80;66.50;;;;;;4977741;28;20576;-86
2022/06/13 13:37:52;;;;;;;39.93;30.70;;;26.80;66.30;;;;;;4977520;28;21019;-83
2022/06/13 13:40:29;;;;;;;68.03;50.27;;;26.80;66.30;;;;;;4977821;28;20449;-83
2022/06/13 13:43:05;;;;;;;129.37;88.93;;;26.80;65.80;;;;;;4977898;28;20544;-83
2022/06/13 13:45:47;;;;;;;138.07;94.40;;;26.80;65.80;;;;;;4975262;28;20432;-85
2022/06/13 13:48:22;;;;;;;100.97;74.77;;;26.80;66.50;;;;;;4978155;28;20437;-85
2022/06/13 13:50:54;;;;;;;103.70;75.73;;;26.80;66.00;;;;;;4978230;28;20472;-84
2022/06/13 13:53:24;;;;;;;117.37;83.40;;;26.80;65.90;;;;;;4978369;28;20836;-85
2022/06/13 13:55:56;;;;;;;102.30;74.93;;;26.80;65.50;;;;;;4978007;28;20495;-85
2022/06/13 13:58:27;;;;;;;120.23;86.77;;;26.80;65.30;;;;;;4977638;28;20485;-83
2022/06/13 14:01:06;;;;;;;135.93;96.60;;;26.80;65.70;;;;;;4977741;28;20445;-82
2022/06/13 14:03:40;;;;;;;119.77;86.63;;;26.80;66.50;;;;;;4977715;28;20441;-85